Time;durP1;ratioP1;P1;durP2;ratioP2;P2;SDS_P1;SDS_P2;PMS_P1;PMS_P2;Temp;Humidity;BMP_temperature;BMP_pressure;BME280_temperature;BME280_humidity;BME280_pressure;Samples;Min_cycle;Max_cycle;Signal;HPM_P1;HPM_P2
2021/07/07 00:00:54;;;;;;;;;;;;;;;26.02;44.48;100628.63;5026449;28;932;-65
2021/07/07 00:03:39;;;;;;;;;;;;;;;26.01;43.61;100621.59;5027847;28;1399;-66
2021/07/07 00:06:25;;;;;;;;;;;;;;;26.03;43.21;100624.94;5027553;28;1038;-67
2021/07/07 00:09:10;;;;;;;;;;;;;;;26.05;43.26;100623.00;5028381;28;1288;-67
2021/07/07 00:11:55;;;;;;;;;;;;;;;26.04;42.61;100618.66;5027757;28;919;-65
2021/07/07 00:14:40;;;;;;;;;;;;;;;26.02;43.22;100613.44;5028116;28;1322;-66
2021/07/07 00:17:26;;;;;;;;;;;;;;;26.02;43.76;100616.09;5059275;28;1054;-65
2021/07/07 00:20:13;;;;;;;;;;;;;;;26.03;42.94;100616.94;5045316;28;1236;-66
2021/07/07 00:22:58;;;;;;;;;;;;;;;25.98;42.22;100616.53;5046819;28;1378;-64
2021/07/07 00:25:44;;;;;;;;;;;;;;;26.01;43.34;100626.94;5026367;28;1096;-64
2021/07/07 00:28:29;;;;;;;;;;;;;;;26.00;44.21;100631.41;5026070;28;1273;-64
2021/07/07 00:31:14;;;;;;;;;;;;;;;26.01;43.26;100642.94;5026094;28;1038;-65
2021/07/07 00:34:00;;;;;;;;;;;;;;;25.99;42.79;100661.75;5043551;28;1430;-65
2021/07/07 00:36:45;;;;;;;;;;;;;;;25.98;43.52;100654.75;5046227;28;1067;-64
2021/07/07 00:39:30;;;;;;;;;;;;;;;26.00;42.25;100649.25;5045903;28;1973;-64
2021/07/07 00:42:15;;;;;;;;;;;;;;;26.00;42.06;100647.44;5046257;28;1075;-64
2021/07/07 00:45:01;;;;;;;;;;;;;;;25.98;42.54;100645.88;5045946;28;644;-65
2021/07/07 00:47:47;;;;;;;;;;;;;;;25.97;42.27;100642.38;5046233;28;1366;-65
2021/07/07 00:50:33;;;;;;;;;;;;;;;25.98;41.35;100638.72;5045349;28;1609;-67
2021/07/07 00:53:18;;;;;;;;;;;;;;;25.96;42.64;100621.16;5045931;28;1410;-66
2021/07/07 00:56:04;;;;;;;;;;;;;;;25.95;42.35;100616.81;5046024;28;1068;-66
2021/07/07 00:58:52;;;;;;;;;;;;;;;25.95;41.89;100606.13;5058535;28;1976;-67
2021/07/07 01:01:39;;;;;;;;;;;;;;;25.94;42.04;100617.78;5046221;28;1081;-65
2021/07/07 01:04:32;;;;;;;;;;;;;;;25.96;42.41;100623.84;5047897;28;1327;-66
2021/07/07 01:07:20;;;;;;;;;;;;;;;25.94;42.11;100615.09;5046616;28;1004;-67
2021/07/07 01:10:06;;;;;;;;;;;;;;;25.93;42.32;100618.78;5047102;28;750;-68
2021/07/07 01:12:53;;;;;;;;;;;;;;;25.93;43.10;100616.09;5045484;28;1221;-68
2021/07/07 01:15:40;;;;;;;;;;;;;;;25.93;43.00;100627.59;5047407;28;1112;-68
2021/07/07 01:18:25;;;;;;;;;;;;;;;25.92;43.10;100641.94;5049094;28;1906;-67
2021/07/07 01:21:11;;;;;;;;;;;;;;;25.91;42.98;100632.22;5030669;28;1178;-67
2021/07/07 01:23:56;;;;;;;;;;;;;;;25.91;42.07;100631.38;5030696;28;1285;-67
2021/07/07 01:26:41;;;;;;;;;;;;;;;25.92;42.44;100633.09;5030461;28;1077;-68
2021/07/07 01:29:26;;;;;;;;;;;;;;;25.89;41.55;100622.69;5030360;28;1337;-67
2021/07/07 01:32:12;;;;;;;;;;;;;;;25.89;42.15;100620.00;5030282;28;974;-68
2021/07/07 01:34:57;;;;;;;;;;;;;;;25.88;42.34;100629.00;5030213;28;636;-67
2021/07/07 01:37:43;;;;;;;;;;;;;;;25.82;41.20;100627.72;5030665;28;1283;-67
2021/07/07 01:40:32;;;;;;;;;;;;;;;25.84;41.38;100635.59;5029406;28;607;-67
2021/07/07 01:43:17;;;;;;;;;;;;;;;25.87;42.34;100632.66;5030117;28;1280;-66
2021/07/07 01:46:02;;;;;;;;;;;;;;;25.86;40.67;100644.31;5030501;28;1039;-66
2021/07/07 01:48:47;;;;;;;;;;;;;;;25.84;40.34;100646.28;5030577;28;1365;-68
2021/07/07 01:51:35;;;;;;;;;;;;;;;25.86;40.67;100662.97;5030354;28;1673;-68
2021/07/07 01:54:20;;;;;;;;;;;;;;;25.83;40.15;100657.91;5030122;28;1304;-68
2021/07/07 01:57:05;;;;;;;;;;;;;;;25.82;40.97;100650.88;5029930;28;1035;-68
2021/07/07 01:59:50;;;;;;;;;;;;;;;25.85;40.94;100643.44;5030148;28;1978;-67
2021/07/07 02:02:35;;;;;;;;;;;;;;;25.84;40.50;100646.28;5030362;28;1280;-68
2021/07/07 02:05:25;;;;;;;;;;;;;;;25.88;41.04;100650.34;5030208;28;647;-68
2021/07/07 02:08:10;;;;;;;;;;;;;;;25.89;39.76;100644.03;5030098;28;1225;-68
2021/07/07 02:10:55;;;;;;;;;;;;;;;25.88;40.11;100648.50;5029763;28;926;-68
2021/07/07 02:13:41;;;;;;;;;;;;;;;25.89;40.53;100652.03;5029540;28;1304;-68
2021/07/07 02:16:26;;;;;;;;;;;;;;;25.89;39.88;100654.72;5029607;28;1048;-67
2021/07/07 02:19:12;;;;;;;;;;;;;;;25.88;39.79;100663.69;5029476;28;1902;-68
2021/07/07 02:21:57;;;;;;;;;;;;;;;25.84;39.47;100667.63;5029663;28;1069;-65
2021/07/07 02:24:42;;;;;;;;;;;;;;;25.78;39.65;100646.78;5029288;28;1280;-65
2021/07/07 02:27:27;;;;;;;;;;;;;;;25.81;39.81;100655.38;5029397;28;1203;-65
2021/07/07 02:30:14;;;;;;;;;;;;;;;25.84;40.26;100651.59;5029236;28;722;-65
2021/07/07 02:33:01;;;;;;;;;;;;;;;25.85;39.36;100642.59;5028815;28;1312;-66
2021/07/07 02:35:46;;;;;;;;;;;;;;;25.83;39.21;100631.22;5028847;28;1114;-65
2021/07/07 02:38:32;;;;;;;;;;;;;;;25.83;39.62;100617.88;5027814;28;1973;-65
2021/07/07 02:41:17;;;;;;;;;;;;;;;25.81;40.22;100609.16;5029322;28;936;-65
2021/07/07 02:44:03;;;;;;;;;;;;;;;25.85;39.66;100610.59;5028917;28;1365;-65
2021/07/07 02:46:48;;;;;;;;;;;;;;;25.84;40.30;100615.06;5029102;28;1041;-65
2021/07/07 02:49:34;;;;;;;;;;;;;;;25.84;40.44;100598.25;5028755;28;1384;-65
2021/07/07 02:52:19;;;;;;;;;;;;;;;25.82;40.60;100592.19;5028879;28;1141;-65
2021/07/07 02:55:09;;;;;;;;;;;;;;;25.79;40.10;100605.78;5028673;28;675;-65
2021/07/07 02:57:58;;;;;;;;;;;;;;;25.76;40.80;100624.75;5029009;28;1243;-65
2021/07/07 03:00:48;;;;;;;;;;;;;;;25.81;40.66;100647.34;5028634;28;1145;-65
2021/07/07 03:03:34;;;;;;;;;;;;;;;25.80;42.25;100653.69;5028693;28;1274;-64
2021/07/07 03:06:20;;;;;;;;;;;;;;;25.78;42.08;100644.97;5028653;28;1036;-65
2021/07/07 03:09:05;;;;;;;;;;;;;;;25.79;42.30;100637.81;5028633;28;1225;-65
2021/07/07 03:11:50;;;;;;;;;;;;;;;25.79;43.59;100638.66;5028805;28;1120;-64
2021/07/07 03:14:35;;;;;;;;;;;;;;;25.81;43.75;100627.84;5028852;28;1227;-65
2021/07/07 03:17:21;;;;;;;;;;;;;;;25.80;44.61;100615.50;5028683;28;1040;-65
2021/07/07 03:20:06;;;;;;;;;;;;;;;25.81;45.28;100617.16;5028515;28;1961;-65
2021/07/07 03:22:51;;;;;;;;;;;;;;;25.80;46.26;100623.50;5028641;28;1323;-66
2021/07/07 03:25:37;;;;;;;;;;;;;;;25.80;46.91;100631.50;5028225;28;1025;-66
2021/07/07 03:28:23;;;;;;;;;;;;;;;25.79;48.19;100644.00;5028671;28;1296;-66
2021/07/07 03:31:09;;;;;;;;;;;;;;;25.77;50.26;100640.63;5028349;28;1051;-66
2021/07/07 03:33:54;;;;;;;;;;;;;;;25.82;51.43;100658.88;5028006;28;1346;-66
2021/07/07 03:36:39;;;;;;;;;;;;;;;25.83;52.19;100668.59;5026831;28;960;-66
2021/07/07 03:39:25;;;;;;;;;;;;;;;25.83;52.34;100666.78;5027730;28;1898;-66
2021/07/07 03:42:10;;;;;;;;;;;;;;;25.82;50.37;100664.22;5028471;28;1102;-66
2021/07/07 03:44:56;;;;;;;;;;;;;;;25.79;49.55;100660.00;5028104;28;699;-66
2021/07/07 03:47:41;;;;;;;;;;;;;;;25.79;49.67;100665.34;5028366;28;1260;-65
2021/07/07 03:50:26;;;;;;;;;;;;;;;25.80;50.06;100660.84;5026910;28;1565;-66
2021/07/07 03:53:12;;;;;;;;;;;;;;;25.81;50.52;100649.19;5028058;28;1354;-66
2021/07/07 03:55:57;;;;;;;;;;;;;;;25.81;50.74;100659.84;5027994;28;1065;-67
2021/07/07 03:58:43;;;;;;;;;;;;;;;25.81;50.68;100665.19;5027961;28;1973;-67
2021/07/07 04:01:28;;;;;;;;;;;;;;;25.82;50.91;100650.88;5027948;28;1143;-66
2021/07/07 04:04:13;;;;;;;;;;;;;;;25.74;51.42;100634.72;5028091;28;1285;-66
2021/07/07 04:06:59;;;;;;;;;;;;;;;25.81;51.74;100658.03;5028068;28;1049;-66
2021/07/07 04:09:44;;;;;;;;;;;;;;;25.82;52.65;100653.53;5027818;28;1354;-67
2021/07/07 04:12:30;;;;;;;;;;;;;;;25.82;53.07;100648.22;5028111;28;1361;-67
2021/07/07 04:15:15;;;;;;;;;;;;;;;25.81;53.07;100650.03;5027708;28;698;-67
2021/07/07 04:18:01;;;;;;;;;;;;;;;25.81;53.72;100660.69;5027553;28;1368;-67
2021/07/07 04:20:50;;;;;;;;;;;;;;;25.79;52.92;100656.47;5027667;28;1899;-68
2021/07/07 04:23:35;;;;;;;;;;;;;;;25.78;53.01;100654.78;5027681;28;1324;-67
2021/07/07 04:26:20;;;;;;;;;;;;;;;25.76;51.95;100643.41;5027665;28;1040;-68
2021/07/07 04:29:06;;;;;;;;;;;;;;;25.73;51.80;100631.19;5027783;28;1304;-67
2021/07/07 04:31:56;;;;;;;;;;;;;;;25.70;51.88;100617.28;5027617;28;1069;-68
2021/07/07 04:34:41;;;;;;;;;;;;;;;25.71;51.35;100609.16;5027491;28;1373;-68
2021/07/07 04:37:26;;;;;;;;;;;;;;;25.67;50.38;100620.22;5027627;28;1059;-67
2021/07/07 04:40:11;;;;;;;;;;;;;;;25.68;50.47;100606.75;5026469;28;1926;-65
2021/07/07 04:42:57;;;;;;;;;;;;;;;25.70;50.43;100606.59;5027744;28;1389;-68
2021/07/07 04:45:45;;;;;;;;;;;;;;;25.70;50.69;100610.13;5027941;28;1274;-68
2021/07/07 04:48:30;;;;;;;;;;;;;;;25.69;51.13;100613.75;5027314;28;1376;-68
2021/07/07 04:51:16;;;;;;;;;;;;;;;25.68;50.58;100608.56;5029601;28;1454;-68
2021/07/07 04:54:01;;;;;;;;;;;;;;;25.60;49.57;100606.56;5030953;28;1294;-68
2021/07/07 04:56:46;;;;;;;;;;;;;;;25.61;49.33;100610.94;5031183;28;1077;-68
2021/07/07 04:59:31;;;;;;;;;;;;;;;25.64;49.21;100604.47;5031005;28;1906;-69
2021/07/07 05:02:17;;;;;;;;;;;;;;;25.64;49.46;100610.66;5031007;28;1125;-69
2021/07/07 05:05:02;;;;;;;;;;;;;;;25.65;49.15;100603.50;5030824;28;659;-69
2021/07/07 05:07:48;;;;;;;;;;;;;;;25.66;50.04;100626.50;5031228;28;1411;-68
2021/07/07 05:10:34;;;;;;;;;;;;;;;25.66;49.82;100638.03;5030898;28;647;-68
2021/07/07 05:13:20;;;;;;;;;;;;;;;25.67;50.10;100628.22;5030715;28;1344;-69
2021/07/07 05:16:05;;;;;;;;;;;;;;;25.61;49.68;100618.09;5029962;28;1053;-68
2021/07/07 05:18:50;;;;;;;;;;;;;;;25.58;48.85;100599.69;5029055;28;1977;-68
2021/07/07 05:21:37;;;;;;;;;;;;;;;25.62;49.67;100598.44;5030644;28;1026;-68
2021/07/07 05:24:22;;;;;;;;;;;;;;;25.64;49.77;100600.00;5029378;28;1284;-68
2021/07/07 05:27:07;;;;;;;;;;;;;;;25.66;49.16;100605.19;5030550;28;1141;-68
2021/07/07 05:29:53;;;;;;;;;;;;;;;25.65;49.99;100615.03;5030659;28;623;-69
2021/07/07 05:32:39;;;;;;;;;;;;;;;25.65;49.65;100614.19;5039089;28;1531;-67
2021/07/07 05:35:24;;;;;;;;;;;;;;;25.63;49.93;100637.44;5028553;28;651;-68
2021/07/07 05:38:10;;;;;;;;;;;;;;;25.65;49.66;100639.03;5029618;28;1355;-67
2021/07/07 05:40:56;;;;;;;;;;;;;;;25.59;50.05;100639.56;5029299;28;1968;-67
2021/07/07 05:43:41;;;;;;;;;;;;;;;25.61;50.33;100640.28;5035464;28;1603;-67
2021/07/07 05:46:26;;;;;;;;;;;;;;;25.67;50.83;100652.22;5031756;28;1022;-67
2021/07/07 05:49:12;;;;;;;;;;;;;;;25.68;50.93;100668.09;5042096;28;1272;-67
2021/07/07 05:51:57;;;;;;;;;;;;;;;25.68;51.05;100661.94;5029731;28;1635;-66
2021/07/07 05:54:42;;;;;;;;;;;;;;;25.69;50.73;100659.09;5029943;28;1281;-66
2021/07/07 05:57:37;;;;;;;;;;;;;;;25.71;50.69;100656.31;5030415;28;1019;-67
2021/07/07 06:00:23;;;;;;;;;;;;;;;25.73;50.56;100659.69;5029920;28;1910;-67
2021/07/07 06:03:10;;;;;;;;;;;;;;;25.71;50.30;100665.19;5029724;28;1289;-66
2021/07/07 06:05:55;;;;;;;;;;;;;;;25.75;50.73;100663.91;5029031;28;1039;-67
2021/07/07 06:08:41;;;;;;;;;;;;;;;25.76;50.69;100680.75;5028687;28;1316;-67
2021/07/07 06:11:27;;;;;;;;;;;;;;;25.79;51.40;100680.50;5029241;28;1068;-66
2021/07/07 06:14:13;;;;;;;;;;;;;;;25.81;51.72;100683.88;5029010;28;1292;-66
2021/07/07 06:16:58;;;;;;;;;;;;;;;25.85;52.00;100690.63;5029668;28;1128;-65
2021/07/07 06:19:43;;;;;;;;;;;;;;;25.85;51.77;100696.81;5029423;28;1961;-67
2021/07/07 06:22:29;;;;;;;;;;;;;;;25.86;52.16;100701.19;5029063;28;1373;-68
2021/07/07 06:25:14;;;;;;;;;;;;;;;25.88;51.90;100703.72;5028542;28;651;-67
2021/07/07 06:28:00;;;;;;;;;;;;;;;25.90;51.71;100707.09;5028401;28;1372;-67
2021/07/07 06:30:46;;;;;;;;;;;;;;;25.87;51.41;100718.88;5031638;28;1516;-68
2021/07/07 06:33:32;;;;;;;;;;;;;;;25.88;50.54;100728.56;5035780;28;1355;-67
2021/07/07 06:36:17;;;;;;;;;;;;;;;25.90;50.38;100721.25;5049028;28;1132;-68
2021/07/07 06:39:02;;;;;;;;;;;;;;;25.86;50.22;100708.34;5048574;28;1898;-67
2021/07/07 06:41:48;;;;;;;;;;;;;;;25.87;50.17;100715.38;5048450;28;929;-68
2021/07/07 06:44:33;;;;;;;;;;;;;;;25.87;50.25;100712.72;5048705;28;1223;-67
2021/07/07 06:47:19;;;;;;;;;;;;;;;25.88;50.02;100712.56;5049252;28;1032;-67
2021/07/07 06:50:05;;;;;;;;;;;;;;;25.86;49.40;100719.00;5048924;28;697;-68
2021/07/07 06:52:50;;;;;;;;;;;;;;;25.89;49.24;100721.41;5041784;28;1507;-66
2021/07/07 06:55:37;;;;;;;;;;;;;;;25.88;48.99;100717.06;5048473;28;1165;-66
2021/07/07 06:58:22;;;;;;;;;;;;;;;25.85;49.20;100715.50;5048759;28;1360;-69
2021/07/07 07:01:12;;;;;;;;;;;;;;;25.87;49.49;100713.53;5048695;28;1906;-68
2021/07/07 07:03:58;;;;;;;;;;;;;;;25.89;49.28;100721.41;5048937;28;1245;-68
2021/07/07 07:06:43;;;;;;;;;;;;;;;25.82;47.98;100721.09;5049536;28;1052;-69
2021/07/07 07:09:29;;;;;;;;;;;;;;;25.81;48.12;100727.41;5049198;28;1297;-74
2021/07/07 07:12:14;;;;;;;;;;;;;;;25.81;48.01;100731.91;5048781;28;1087;-73
2021/07/07 07:14:59;;;;;;;;;;;;;;;25.76;48.17;100742.97;5048635;28;691;-72
2021/07/07 07:17:45;;;;;;;;;;;;;;;25.79;48.39;100740.03;5046975;28;1364;-71
2021/07/07 07:20:30;;;;;;;;;;;;;;;25.80;48.30;100736.41;5047986;28;1894;-69
2021/07/07 07:23:20;;;;;;;;;;;;;;;25.83;48.80;100754.81;5045601;28;1686;-73
2021/07/07 07:26:05;;;;;;;;;;;;;;;25.83;49.22;100757.50;5047415;28;1217;-69
2021/07/07 07:28:51;;;;;;;;;;;;;;;25.64;49.62;100760.03;5046445;28;1381;-67
2021/07/07 07:31:39;;;;;;;;;;;;;;;25.68;49.38;100752.63;5046571;28;1165;-70
2021/07/07 07:34:25;;;;;;;;;;;;;;;25.72;49.36;100754.03;5046266;28;1284;-71
2021/07/07 07:37:13;;;;;;;;;;;;;;;25.79;50.11;100757.88;5045117;28;1098;-68
2021/07/07 07:39:58;;;;;;;;;;;;;;;25.75;51.30;100759.09;5046469;28;1957;-69
2021/07/07 07:42:45;;;;;;;;;;;;;;;25.76;51.47;100772.31;5046859;28;1273;-70
2021/07/07 07:45:31;;;;;;;;;;;;;;;25.78;51.53;100769.50;5045472;28;635;-69
2021/07/07 07:48:16;;;;;;;;;;;;;;;25.82;51.29;100769.13;5045799;28;1273;-69
2021/07/07 07:51:03;;;;;;;;;;;;;;;25.87;51.60;100766.09;5046324;28;1639;-71
2021/07/07 07:53:48;;;;;;;;;;;;;;;25.85;52.08;100765.34;5046091;28;1382;-70
2021/07/07 07:56:34;;;;;;;;;;;;;;;25.79;52.12;100773.88;5046333;28;1186;-69
2021/07/07 07:59:19;;;;;;;;;;;;;;;25.86;52.50;100775.06;5046235;28;1387;-76
2021/07/07 08:02:04;;;;;;;;;;;;;;;25.96;52.55;100768.78;5046641;28;1117;-70
2021/07/07 08:04:50;;;;;;;;;;;;;;;25.94;53.23;100781.41;5046350;28;1375;-71
2021/07/07 08:07:37;;;;;;;;;;;;;;;25.91;53.21;100802.19;5046634;28;1275;-71
2021/07/07 08:10:22;;;;;;;;;;;;;;;25.93;53.67;100794.91;5045902;28;1506;-69
2021/07/07 08:13:08;;;;;;;;;;;;;;;25.92;53.14;100782.53;5039554;28;1435;-71
2021/07/07 08:15:53;;;;;;;;;;;;;;;25.92;52.97;100774.53;5044641;28;970;-71
2021/07/07 08:18:40;;;;;;;;;;;;;;;25.84;53.28;100758.34;5045520;28;1568;-72
2021/07/07 08:21:26;;;;;;;;;;;;;;;25.86;53.47;100754.56;5044552;28;1910;-72
2021/07/07 08:24:11;;;;;;;;;;;;;;;25.93;53.26;100768.22;5045620;28;1240;-71
2021/07/07 08:26:58;;;;;;;;;;;;;;;25.91;53.36;100770.16;5050595;28;1403;-75
2021/07/07 08:29:43;;;;;;;;;;;;;;;25.98;53.40;100761.50;5048538;28;1422;-64
2021/07/07 08:32:28;;;;;;;;;;;;;;;25.94;53.62;100744.03;5049175;28;1280;-64
2021/07/07 08:35:17;;;;;;;;;;;;;;;25.93;54.00;100731.66;5049682;28;681;-67
2021/07/07 08:38:02;;;;;;;;;;;;;;;25.92;53.98;100730.00;5050202;28;1402;-65
2021/07/07 08:40:47;;;;;;;;;;;;;;;25.87;54.64;100756.22;5049719;28;1961;-64
2021/07/07 08:43:32;;;;;;;;;;;;;;;25.96;54.43;100770.63;5048674;28;1399;-65
2021/07/07 08:46:18;;;;;;;;;;;;;;;25.97;54.65;100783.81;5030259;28;990;-68
2021/07/07 08:49:04;;;;;;;;;;;;;;;25.97;54.48;100785.63;5028769;28;1284;-66
2021/07/07 08:51:50;;;;;;;;;;;;;;;25.98;54.28;100787.34;5030546;28;1200;-69
2021/07/07 08:54:35;;;;;;;;;;;;;;;25.96;54.37;100774.09;5029524;28;1289;-67
2021/07/07 08:57:21;;;;;;;;;;;;;;;25.98;54.21;100769.50;5041433;28;1034;-67
2021/07/07 09:00:06;;;;;;;;;;;;;;;25.97;54.44;100775.81;5029687;28;1975;-69
2021/07/07 09:02:54;;;;;;;;;;;;;;;26.00;54.38;100777.34;5030568;28;1350;-67
2021/07/07 09:05:54;;;;;;;;;;;;;;;26.00;53.92;100780.88;5029820;28;1117;-67
2021/07/07 09:08:44;;;;;;;;;;;;;;;25.95;53.95;100776.94;5029818;28;1251;-67
2021/07/07 09:11:34;;;;;;;;;;;;;;;25.93;54.05;100785.06;5030439;28;1077;-69
2021/07/07 09:14:20;;;;;;;;;;;;;;;25.95;54.31;100784.94;5030528;28;1245;-69
2021/07/07 09:17:15;;;;;;;;;;;;;;;25.96;53.93;100791.97;5029369;28;1079;-69
2021/07/07 09:20:13;;;;;;;;;;;;;;;25.99;53.98;100797.88;5029345;28;1971;-68
2021/07/07 09:23:17;;;;;;;;;;;;;;;26.00;54.31;100793.38;5029382;28;1241;-68
2021/07/07 09:26:04;;;;;;;;;;;;;;;25.98;53.82;100793.53;5030774;28;1110;-71
2021/07/07 09:28:49;;;;;;;;;;;;;;;25.94;53.94;100794.75;5029457;28;1233;-70
2021/07/07 09:31:39;;;;;;;;;;;;;;;25.94;54.20;100789.41;5030613;28;982;-69
2021/07/07 09:34:24;;;;;;;;;;;;;;;25.96;53.96;100794.63;5042876;28;1291;-68
2021/07/07 09:37:18;;;;;;;;;;;;;;;25.95;53.70;100798.28;5029868;28;1033;-68
2021/07/07 09:40:06;;;;;;;;;;;;;;;25.99;53.57;100823.72;5030036;28;2426;-70
2021/07/07 09:42:51;;;;;;;;;;;;;;;25.96;53.42;100826.66;5029971;28;1594;-70
2021/07/07 09:45:41;;;;;;;;;;;;;;;25.97;54.00;100815.84;5029306;28;1085;-72
2021/07/07 09:48:27;;;;;;;;;;;;;;;26.05;53.38;100821.34;5036924;28;1544;-71
2021/07/07 09:51:12;;;;;;;;;;;;;;;26.15;53.64;100816.09;5030215;28;1317;-64
2021/07/07 09:53:59;;;;;;;;;;;;;;;26.19;54.22;100825.53;5038285;28;1644;-64
2021/07/07 09:56:45;;;;;;;;;;;;;;;26.26;55.07;100829.38;5038096;28;1530;-67
2021/07/07 09:59:30;;;;;;;;;;;;;;;26.26;54.69;100833.88;5041965;28;1696;-63
2021/07/07 10:02:16;;;;;;;;;;;;;;;26.29;54.16;100828.25;5034180;28;1638;-65
2021/07/07 10:05:02;;;;;;;;;;;;;;;26.19;53.38;100817.53;5047643;28;749;-65
2021/07/07 10:07:48;;;;;;;;;;;;;;;26.14;52.50;100821.56;5049261;28;1252;-65
2021/07/07 10:10:36;;;;;;;;;;;;;;;26.17;52.06;100822.16;5045661;28;1684;-69
2021/07/07 10:13:21;;;;;;;;;;;;;;;26.27;52.39;100833.72;5028510;28;1367;-68
2021/07/07 10:16:07;;;;;;;;;;;;;;;26.33;52.59;100829.66;5028590;28;1056;-65
2021/07/07 10:18:53;;;;;;;;;;;;;;;26.42;52.60;100831.53;5028067;28;1237;-63
2021/07/07 10:21:40;;;;;;;;;;;;;;;26.46;52.69;100832.97;5028413;28;1930;-67
2021/07/07 10:24:27;;;;;;;;;;;;;;;26.51;52.94;100838.72;5029027;28;1385;-67
2021/07/07 10:27:13;;;;;;;;;;;;;;;26.50;53.28;100837.91;5028888;28;938;-64
2021/07/07 10:30:11;;;;;;;;;;;;;;;26.48;53.39;100837.19;5032395;28;1552;-72
2021/07/07 10:33:10;;;;;;;;;;;;;;;26.52;53.89;100833.28;5031883;28;1284;-73
2021/07/07 10:36:14;;;;;;;;;;;;;;;26.63;53.19;100838.50;5028008;28;958;-65
2021/07/07 10:39:05;;;;;;;;;;;;;;;26.57;53.96;100844.38;5026142;28;1383;-63
2021/07/07 10:41:57;;;;;;;;;;;;;;;26.52;53.80;100835.09;5034254;28;1966;-65
2021/07/07 10:44:45;;;;;;;;;;;;;;;26.52;53.71;100845.78;5047881;28;1221;-64
2021/07/07 10:47:33;;;;;;;;;;;;;;;26.45;53.46;100828.59;5047159;28;1357;-64
2021/07/07 10:50:33;;;;;;;;;;;;;;;26.42;53.22;100842.22;5049173;28;1388;-65
2021/07/07 10:53:24;;;;;;;;;;;;;;;26.39;52.77;100851.34;5049319;28;1368;-64
2021/07/07 10:56:10;;;;;;;;;;;;;;;26.38;52.15;100852.34;5049012;28;929;-65
2021/07/07 10:58:55;;;;;;;;;;;;;;;26.40;52.72;100853.03;5047136;28;1655;-64
2021/07/07 11:01:56;;;;;;;;;;;;;;;26.39;51.73;100848.66;5040463;28;1969;-62
2021/07/07 11:04:43;;;;;;;;;;;;;;;26.41;52.17;100854.75;5046545;28;1451;-63
2021/07/07 11:07:31;;;;;;;;;;;;;;;26.40;52.30;100854.88;5047989;28;1142;-63
2021/07/07 11:10:23;;;;;;;;;;;;;;;26.38;52.86;100849.69;5047312;28;671;-63
2021/07/07 11:13:08;;;;;;;;;;;;;;;26.37;52.62;100853.31;5047489;28;1374;-63
2021/07/07 11:15:54;;;;;;;;;;;;;;;26.37;53.17;100857.81;5046071;28;1217;-63
2021/07/07 11:18:41;;;;;;;;;;;;;;;26.36;52.61;100853.44;5047387;28;1375;-64
2021/07/07 11:21:29;;;;;;;;;;;;;;;26.48;52.97;100855.88;5040615;28;1906;-67
2021/07/07 11:24:15;;;;;;;;;;;;;;;26.53;52.12;100859.00;5035407;28;1316;-69
2021/07/07 11:27:04;;;;;;;;;;;;;;;26.37;52.02;100855.13;5033952;28;1369;-68
2021/07/07 11:29:50;;;;;;;;;;;;;;;26.16;51.21;100859.66;5030749;28;1289;-69
2021/07/07 11:32:58;;;;;;;;;;;;;;;25.99;50.25;100875.25;5027058;28;1250;-71
2021/07/07 11:35:43;;;;;;;;;;;;;;;25.87;49.92;100873.63;5039774;28;1580;-68
2021/07/07 11:38:29;;;;;;;;;;;;;;;25.89;49.97;100868.19;5040121;28;1694;-69
2021/07/07 11:41:15;;;;;;;;;;;;;;;25.93;50.36;100856.28;5047064;28;1929;-70
2021/07/07 11:44:00;;;;;;;;;;;;;;;25.86;49.73;100860.44;5045564;28;1299;-68
2021/07/07 11:46:57;;;;;;;;;;;;;;;25.88;49.17;100863.81;5042570;28;1340;-67
2021/07/07 11:50:00;;;;;;;;;;;;;;;25.79;48.94;100867.28;5027005;28;1244;-66
2021/07/07 11:52:54;;;;;;;;;;;;;;;25.75;48.63;100860.50;5027311;28;1281;-65
2021/07/07 11:55:44;;;;;;;;;;;;;;;25.69;48.38;100842.34;5039371;28;1159;-69
2021/07/07 11:58:38;;;;;;;;;;;;;;;25.67;48.15;100842.47;5044784;28;1241;-70
2021/07/07 12:01:28;;;;;;;;;;;;;;;25.61;48.11;100853.66;5046321;28;1989;-67
2021/07/07 12:04:14;;;;;;;;;;;;;;;25.60;47.48;100857.28;5046161;28;1329;-70
2021/07/07 12:06:59;;;;;;;;;;;;;;;25.61;47.19;100869.66;5046530;28;1070;-68
2021/07/07 12:09:45;;;;;;;;;;;;;;;25.59;46.68;100866.28;5045963;28;1374;-69
2021/07/07 12:12:30;;;;;;;;;;;;;;;25.52;46.67;100859.78;5045760;28;1386;-70
2021/07/07 12:15:21;;;;;;;;;;;;;;;25.46;46.29;100861.09;5045917;28;683;-69
2021/07/07 12:18:07;;;;;;;;;;;;;;;25.44;46.10;100863.03;5045981;28;1232;-71
2021/07/07 12:20:53;;;;;;;;;;;;;;;25.40;46.30;100866.09;5046148;28;1957;-73
2021/07/07 12:23:45;;;;;;;;;;;;;;;25.29;46.24;100845.63;5046431;28;1232;-68
2021/07/07 12:26:32;;;;;;;;;;;;;;;25.32;46.39;100856.03;5046520;28;1085;-70
2021/07/07 12:29:25;;;;;;;;;;;;;;;25.41;46.41;100857.94;5046273;28;1363;-69
2021/07/07 12:32:12;;;;;;;;;;;;;;;25.44;46.45;100854.22;5049287;28;1052;-68
2021/07/07 12:35:01;;;;;;;;;;;;;;;25.42;48.26;100848.13;5047283;28;609;-70
2021/07/07 12:37:46;;;;;;;;;;;;;;;25.39;49.04;100854.56;5045271;28;1381;-71
2021/07/07 12:40:32;;;;;;;;;;;;;;;25.43;49.33;100857.84;5045194;28;1965;-73
2021/07/07 12:43:28;;;;;;;;;;;;;;;25.23;49.31;100854.13;5057449;28;1217;-72
2021/07/07 12:46:14;;;;;;;;;;;;;;;25.12;49.38;100850.69;5045159;28;1170;-70
2021/07/07 12:48:59;;;;;;;;;;;;;;;25.15;48.86;100847.75;5044476;28;1407;-69
2021/07/07 12:51:44;;;;;;;;;;;;;;;25.20;48.82;100846.41;5042162;28;1360;-69
2021/07/07 12:54:30;;;;;;;;;;;;;;;25.25;48.48;100836.22;5042249;28;1398;-72
2021/07/07 12:57:15;;;;;;;;;;;;;;;25.25;48.33;100835.38;5043978;28;1110;-72
2021/07/07 13:00:00;;;;;;;;;;;;;;;25.22;48.09;100838.28;5043974;28;1131;-74
2021/07/07 13:02:52;;;;;;;;;;;;;;;25.18;48.33;100848.34;5042879;28;1930;-70
2021/07/07 13:06:00;;;;;;;;;;;;;;;25.31;47.85;100846.38;5043647;28;1675;-69
2021/07/07 13:08:48;;;;;;;;;;;;;;;24.96;47.83;100832.41;5049982;28;1237;-70
2021/07/07 13:11:34;;;;;;;;;;;;;;;25.09;47.82;100851.78;5044211;28;1193;-72
2021/07/07 13:14:23;;;;;;;;;;;;;;;25.02;47.50;100845.25;5048095;28;1312;-72
2021/07/07 13:17:08;;;;;;;;;;;;;;;25.03;47.00;100844.28;5047037;28;1202;-73
2021/07/07 13:19:58;;;;;;;;;;;;;;;24.87;47.46;100835.84;5046693;28;1202;-71
2021/07/07 13:22:58;;;;;;;;;;;;;;;24.94;47.30;100845.03;5045873;28;1923;-72
2021/07/07 13:25:43;;;;;;;;;;;;;;;25.00;46.92;100837.38;5048316;28;1376;-71
2021/07/07 13:28:28;;;;;;;;;;;;;;;24.94;46.76;100843.22;5046289;28;1287;-70
2021/07/07 13:31:13;;;;;;;;;;;;;;;24.90;46.68;100848.91;5047049;28;1138;-69
2021/07/07 13:33:59;;;;;;;;;;;;;;;24.89;46.62;100847.22;5048111;28;1312;-72
2021/07/07 13:36:44;;;;;;;;;;;;;;;24.90;46.18;100838.25;5048562;28;1070;-69
2021/07/07 13:39:29;;;;;;;;;;;;;;;24.86;46.32;100834.16;5045844;28;1311;-68
2021/07/07 13:42:15;;;;;;;;;;;;;;;24.97;45.85;100836.78;5047132;28;1910;-71
2021/07/07 13:45:00;;;;;;;;;;;;;;;24.86;45.81;100834.16;5047576;28;1226;-68
2021/07/07 13:47:46;;;;;;;;;;;;;;;24.91;45.61;100830.16;5045794;28;1291;-72
2021/07/07 13:50:32;;;;;;;;;;;;;;;24.99;45.79;100829.50;5048081;28;1576;-70
2021/07/07 13:53:18;;;;;;;;;;;;;;;24.93;45.34;100817.53;5040044;28;1342;-70
2021/07/07 13:56:03;;;;;;;;;;;;;;;24.79;45.66;100832.91;5044100;28;1428;-69
2021/07/07 13:58:49;;;;;;;;;;;;;;;24.76;45.49;100827.84;5044260;28;1292;-70
2021/07/07 14:01:34;;;;;;;;;;;;;;;24.75;45.34;100826.13;5045567;28;1985;-70
2021/07/07 14:04:20;;;;;;;;;;;;;;;24.72;45.38;100815.72;5045723;28;1275;-71
2021/07/07 14:07:06;;;;;;;;;;;;;;;24.75;45.48;100810.16;5043824;28;1347;-71
2021/07/07 14:09:51;;;;;;;;;;;;;;;24.78;45.44;100816.09;5045411;28;1320;-70
2021/07/07 14:12:39;;;;;;;;;;;;;;;24.70;45.50;100813.22;5047399;28;1381;-70
2021/07/07 14:15:24;;;;;;;;;;;;;;;24.91;46.04;100815.97;5045060;28;1345;-70
2021/07/07 14:18:09;;;;;;;;;;;;;;;24.96;44.93;100822.63;5048990;28;1216;-71
2021/07/07 14:20:55;;;;;;;;;;;;;;;24.95;44.86;100817.44;5047077;28;1905;-68
2021/07/07 14:23:41;;;;;;;;;;;;;;;24.97;44.96;100819.00;5047881;28;1354;-70
2021/07/07 14:26:27;;;;;;;;;;;;;;;24.87;44.89;100814.53;5044326;28;1076;-69
2021/07/07 14:29:14;;;;;;;;;;;;;;;24.90;45.15;100814.28;5047078;28;1367;-68